KBUR/BUR METAR and TAF weather

Enter ICAO airport designator
Station Type Date Time Source
KBUR METAR 2018/07/21 12:53 UTC NOAA

KBUR 211253Z 13005KT 10SM CLR 19/18 A2997 RMK AO2 SLP137 T01940178


Station Type Date Time Source
KBUR Decoded METAR 2018/07/21 12:53 UTC NOAA

BURBANK-GLENDALE-PASADENA, CA, United States (KBUR) 34-12N 118-22W 217M
Jul 21, 2018 - 08:53 AM EDT / 2018.07.21 1253 UTC
Wind: from the SE (130 degrees) at 6 MPH (5 KT):0
Visibility: 10 mile(s):0
Sky conditions: clear
Temperature: 66.9 F (19.4 C)
Dew Point: 64.0 F (17.8 C)
Relative Humidity: 90%
Pressure (altimeter): 29.97 in. Hg (1014 hPa)
ob: KBUR 211253Z 13005KT 10SM CLR 19/18 A2997 RMK AO2 SLP137 T01940178
cycle: 13

Station Type Date Time Source
KBUR TAF 2018/07/21 12:30 UTC NOAA

TAF KBUR 211127Z 2112/2212 VRB03KT P6SM SKC
FM211800 17010KT P6SM SKC
FM220300 VRB03KT P6SM SKC


Example: see airport list